createdAt,value
2022-08-11T00:01:53.847Z,2.80
2022-08-11T00:04:24.836Z,3.50
2022-08-11T00:06:52.914Z,3.27
2022-08-11T00:09:22.413Z,2.93
2022-08-11T00:11:52.568Z,3.10
2022-08-11T00:14:23.067Z,3.10
2022-08-11T00:17:01.371Z,2.93
2022-08-11T00:20:12.401Z,3.10
2022-08-11T00:22:21.559Z,3.10
2022-08-11T00:24:53.342Z,3.23
2022-08-11T00:27:34.558Z,2.97
2022-08-11T00:30:01.369Z,3.33
2022-08-11T00:32:28.816Z,2.83
2022-08-11T00:35:50.907Z,4.30
2022-08-11T00:37:49.593Z,3.50
2022-08-11T00:40:24.103Z,4.40
2022-08-11T00:43:21.537Z,3.50
2022-08-11T00:46:13.979Z,3.90
2022-08-11T00:49:07.032Z,3.30
2022-08-11T00:52:03.774Z,4.00
2022-08-11T00:55:07.883Z,4.27
2022-08-11T00:57:47.487Z,4.87
2022-08-11T01:00:19.875Z,4.03
2022-08-11T01:03:05.987Z,3.90
2022-08-11T01:05:38.591Z,4.30
2022-08-11T01:08:08.037Z,3.73
2022-08-11T01:10:53.743Z,3.90
2022-08-11T01:13:38.990Z,3.57
2022-08-11T01:16:17.896Z,3.77
2022-08-11T01:19:05.006Z,3.60
2022-08-11T01:22:13.005Z,3.07
2022-08-11T01:24:57.367Z,3.20
2022-08-11T01:27:44.753Z,3.50
2022-08-11T01:30:41.119Z,3.47
2022-08-11T01:33:44.521Z,3.57
2022-08-11T01:36:42.325Z,3.13
2022-08-11T01:39:37.281Z,3.20
2022-08-11T01:42:47.535Z,3.27
2022-08-11T01:45:26.513Z,3.07
2022-08-11T01:48:03.407Z,3.50
2022-08-11T01:51:00.680Z,3.90
2022-08-11T01:53:51.575Z,3.30
2022-08-11T01:56:23.965Z,4.07
2022-08-11T01:59:07.347Z,3.73
2022-08-11T02:01:36.644Z,3.93
2022-08-11T02:04:31.623Z,3.90
2022-08-11T02:07:08.815Z,4.03
2022-08-11T02:10:01.734Z,3.90
2022-08-11T02:12:42.097Z,4.07
2022-08-11T02:15:29.169Z,3.60
2022-08-11T02:18:06.602Z,3.83
2022-08-11T02:21:02.813Z,4.17
2022-08-11T02:24:06.579Z,4.17
2022-08-11T02:26:45.251Z,4.10
2022-08-11T02:29:32.381Z,3.50
2022-08-11T02:32:35.214Z,4.10
2022-08-11T02:35:28.559Z,4.00
2022-08-11T02:38:08.736Z,3.80
2022-08-11T02:40:41.034Z,3.63
2022-08-11T02:43:18.104Z,3.90
2022-08-11T02:45:49.993Z,3.47
2022-08-11T02:49:12.051Z,3.73
2022-08-11T02:51:53.787Z,3.67
2022-08-11T02:54:32.782Z,4.27
2022-08-11T02:57:13.940Z,3.83
2022-08-11T02:59:50.254Z,4.07
2022-08-11T03:02:16.721Z,3.30
2022-08-11T03:04:55.777Z,4.33
2022-08-11T03:07:29.646Z,3.33
2022-08-11T03:10:23.486Z,4.00
2022-08-11T03:13:15.662Z,3.57
2022-08-11T03:16:14.632Z,3.50
2022-08-11T03:18:57.319Z,4.10
2022-08-11T03:22:01.443Z,3.80
2022-08-11T03:24:44.912Z,3.83
2022-08-11T03:27:36.839Z,3.63
2022-08-11T03:30:10.359Z,3.97
2022-08-11T03:33:27.331Z,3.70
2022-08-11T03:36:12.595Z,4.10
2022-08-11T03:39:06.087Z,4.27
2022-08-11T03:42:23.479Z,3.97
2022-08-11T03:45:03.491Z,3.97
2022-08-11T03:48:01.053Z,4.27
2022-08-11T03:50:39.684Z,4.70
2022-08-11T03:53:14.964Z,4.80
2022-08-11T03:56:06.424Z,4.80
2022-08-11T03:58:57.415Z,4.53
2022-08-11T04:01:38.642Z,4.53
2022-08-11T04:04:18.697Z,4.10
2022-08-11T04:07:17.680Z,4.50
2022-08-11T04:09:50.390Z,4.53
2022-08-11T04:12:35.513Z,4.33
2022-08-11T04:15:57.800Z,4.40
2022-08-11T04:18:45.317Z,4.10
2022-08-11T04:21:36.685Z,4.47
2022-08-11T04:24:34.972Z,5.00
2022-08-11T04:27:19.252Z,5.50
2022-08-11T04:30:05.723Z,4.53
2022-08-11T04:32:41.249Z,4.67
2022-08-11T04:35:33.302Z,5.00
2022-08-11T04:38:11.800Z,4.93
2022-08-11T04:41:16.363Z,5.53
2022-08-11T04:44:11.225Z,4.87
2022-08-11T04:47:05.683Z,5.30
2022-08-11T04:50:19.118Z,4.90
2022-08-11T04:53:25.001Z,4.93
2022-08-11T04:56:35.673Z,5.00
2022-08-11T04:59:39.395Z,4.60
2022-08-11T05:02:36.783Z,5.10
2022-08-11T05:05:31.078Z,4.97
2022-08-11T05:08:37.041Z,5.30
2022-08-11T05:11:45.559Z,4.70
2022-08-11T05:14:47.113Z,5.23
2022-08-11T05:17:34.840Z,5.00
2022-08-11T05:20:19.829Z,4.53
2022-08-11T05:23:08.380Z,4.63
2022-08-11T05:26:45.124Z,4.77
2022-08-11T05:29:20.154Z,4.53
2022-08-11T05:32:17.775Z,4.90
2022-08-11T05:34:50.090Z,5.40
2022-08-11T05:37:27.459Z,5.60
2022-08-11T05:40:17.435Z,5.20
2022-08-11T05:43:08.716Z,5.17
2022-08-11T05:46:03.826Z,4.93
2022-08-11T05:48:54.422Z,4.93
2022-08-11T05:51:52.482Z,5.13
2022-08-11T05:54:41.185Z,5.03
2022-08-11T05:57:07.846Z,5.03
2022-08-11T05:59:34.596Z,5.50
2022-08-11T06:02:06.207Z,5.00
2022-08-11T06:04:33.632Z,5.10
2022-08-11T06:07:09.872Z,4.53
2022-08-11T06:09:39.274Z,5.57
2022-08-11T06:12:11.084Z,5.13
2022-08-11T06:14:43.111Z,4.97
2022-08-11T06:17:10.148Z,4.97
2022-08-11T06:19:39.948Z,4.83
2022-08-11T06:22:08.549Z,5.17
2022-08-11T06:24:36.740Z,5.03
2022-08-11T06:27:13.137Z,4.97
2022-08-11T06:29:54.740Z,4.77
2022-08-11T06:32:27.987Z,4.37
2022-08-11T06:35:19.988Z,4.50
2022-08-11T06:37:55.547Z,4.70
2022-08-11T06:40:30.153Z,4.30
2022-08-11T06:43:24.492Z,4.80
2022-08-11T06:46:04.486Z,4.33
2022-08-11T06:48:33.027Z,4.33
2022-08-11T06:51:15.109Z,4.53
2022-08-11T06:54:03.721Z,4.23
2022-08-11T06:57:18.619Z,4.20
2022-08-11T06:59:59.520Z,4.47
2022-08-11T07:02:43.425Z,4.17
2022-08-11T07:05:23.638Z,4.53
2022-08-11T07:08:34.021Z,4.20
2022-08-11T07:12:00.423Z,4.70
2022-08-11T07:14:46.811Z,4.70
2022-08-11T07:17:17.338Z,4.63
2022-08-11T07:20:14.550Z,4.53
2022-08-11T07:23:03.224Z,4.33
2022-08-11T07:25:48.208Z,4.40
2022-08-11T07:28:37.339Z,4.80
2022-08-11T07:31:29.202Z,4.70
2022-08-11T07:34:05.845Z,4.50
2022-08-11T07:36:39.467Z,4.40
2022-08-11T07:39:09.787Z,4.93
2022-08-11T07:41:36.403Z,4.03
2022-08-11T07:44:09.247Z,4.03
2022-08-11T07:47:02.146Z,4.10
2022-08-11T07:49:49.747Z,3.60
2022-08-11T07:52:33.669Z,3.73
2022-08-11T07:55:03.839Z,3.53
2022-08-11T07:58:14.278Z,3.65
2022-08-11T08:01:01.702Z,3.53
2022-08-11T08:03:54.807Z,4.00
2022-08-11T08:06:40.392Z,3.60
2022-08-11T08:09:25.987Z,3.92
2022-08-11T08:12:11.132Z,3.90
2022-08-11T08:14:56.673Z,3.35
2022-08-11T08:17:42.277Z,3.65
2022-08-11T08:20:12.854Z,3.65
2022-08-11T08:22:41.896Z,3.35
2022-08-11T08:25:11.002Z,3.05
2022-08-11T08:27:43.571Z,3.03
2022-08-11T08:30:29.292Z,2.90
2022-08-11T08:32:57.776Z,3.05
2022-08-11T08:35:24.426Z,2.78
2022-08-11T08:37:52.909Z,2.97
2022-08-11T08:40:19.469Z,3.05
2022-08-11T08:42:59.012Z,3.40
2022-08-11T08:45:27.289Z,2.75
2022-08-11T08:48:00.206Z,2.63
2022-08-11T08:50:49.448Z,2.58
2022-08-11T08:53:22.070Z,2.38
2022-08-11T08:55:50.753Z,1.98
2022-08-11T08:58:19.703Z,2.42
2022-08-11T09:00:47.254Z,2.13
2022-08-11T09:03:38.922Z,1.88
2022-08-11T09:06:00.888Z,1.67
2022-08-11T09:08:28.488Z,2.05
2022-08-11T09:11:14.615Z,1.70
2022-08-11T09:13:44.381Z,1.60
2022-08-11T09:16:11.957Z,1.50
2022-08-11T09:18:39.525Z,1.40
2022-08-11T09:21:07.205Z,1.60
2022-08-11T09:24:12.825Z,1.80
2022-08-11T09:26:57.355Z,1.48
2022-08-11T09:29:23.920Z,1.42
2022-08-11T09:31:50.853Z,1.30
2022-08-11T09:34:17.366Z,1.30
2022-08-11T09:37:02.874Z,1.50
2022-08-11T09:39:49.104Z,1.30
2022-08-11T09:42:23.351Z,1.30
2022-08-11T09:44:52.728Z,1.48
2022-08-11T09:47:30.132Z,1.67
2022-08-11T09:50:01.294Z,1.67
2022-08-11T09:52:30.159Z,1.70
2022-08-11T09:54:56.986Z,1.80
2022-08-11T09:57:42.088Z,1.90
2022-08-11T10:00:13.354Z,1.75
2022-08-11T10:02:46.411Z,1.73
2022-08-11T10:05:34.112Z,2.65
2022-08-11T10:08:01.461Z,1.45
2022-08-11T10:10:28.434Z,1.60
2022-08-11T10:13:04.420Z,3.35
2022-08-11T10:15:34.712Z,1.52
2022-08-11T10:18:28.519Z,1.50
2022-08-11T10:21:11.825Z,1.65
2022-08-11T10:24:00.927Z,1.50
2022-08-11T10:26:51.528Z,1.20
2022-08-11T10:29:59.647Z,1.48
2022-08-11T10:32:58.536Z,1.58
2022-08-11T10:35:28.776Z,1.40
2022-08-11T10:38:15.741Z,1.40
2022-08-11T10:40:46.122Z,1.63
2022-08-11T10:43:14.463Z,1.48
2022-08-11T10:46:18.779Z,1.10
2022-08-11T10:48:56.674Z,1.38
2022-08-11T10:51:51.096Z,1.30
2022-08-11T10:54:39.356Z,1.60
2022-08-11T10:57:24.567Z,1.40
2022-08-11T10:59:51.208Z,1.50
2022-08-11T11:02:18.977Z,1.50
2022-08-11T11:05:09.223Z,1.40
2022-08-11T11:07:55.432Z,1.40
2022-08-11T11:10:21.916Z,1.52
2022-08-11T11:13:14.607Z,1.50
2022-08-11T11:16:03.310Z,1.13
2022-08-11T11:18:35.970Z,1.48
2022-08-11T11:21:10.885Z,1.40
2022-08-11T11:23:41.374Z,2.00
2022-08-11T11:26:10.449Z,1.60
2022-08-11T11:28:55.805Z,1.45
2022-08-11T11:31:36.561Z,1.50
2022-08-11T11:34:17.043Z,1.92
2022-08-11T11:36:54.206Z,1.63
2022-08-11T11:39:25.591Z,1.65
2022-08-11T11:41:56.421Z,1.55
2022-08-11T11:44:24.957Z,1.77
2022-08-11T11:46:51.813Z,1.60
2022-08-11T11:51:54.913Z,1.50
2022-08-11T11:54:23.885Z,1.60
2022-08-11T11:56:53.202Z,1.75
2022-08-11T11:59:40.404Z,1.90
2022-08-11T12:02:12.212Z,1.48
2022-08-11T12:04:43.205Z,1.50
2022-08-11T12:07:28.872Z,1.63
2022-08-11T12:09:55.969Z,2.03
2022-08-11T12:12:41.156Z,1.60
2022-08-11T12:15:08.531Z,1.80
2022-08-11T12:17:35.864Z,1.70
2022-08-11T12:20:04.304Z,1.70
2022-08-11T12:22:49.831Z,1.95
2022-08-11T12:25:35.997Z,1.90
2022-08-11T12:28:02.696Z,1.90
2022-08-11T12:30:29.597Z,1.63
2022-08-11T12:32:57.163Z,1.75
2022-08-11T12:35:23.621Z,2.10
2022-08-11T12:37:54.253Z,1.80
2022-08-11T12:41:13.788Z,1.67
2022-08-11T12:43:57.186Z,1.73
2022-08-11T12:46:27.849Z,1.70
2022-08-11T12:49:17.462Z,1.80
2022-08-11T12:52:12.225Z,2.08
2022-08-11T12:55:12.570Z,1.70
2022-08-11T12:58:01.935Z,1.50
2022-08-11T13:00:48.595Z,1.40
2022-08-11T13:03:34.152Z,1.58
2022-08-11T13:06:02.645Z,1.70
2022-08-11T13:08:30.119Z,1.73
2022-08-11T13:11:17.317Z,1.80
2022-08-11T13:13:54.301Z,1.80
2022-08-11T13:16:25.402Z,1.67
2022-08-11T13:18:53.499Z,1.80
2022-08-11T13:21:21.554Z,2.10
2022-08-11T13:24:01.985Z,2.05
2022-08-11T13:26:46.818Z,2.03
2022-08-11T13:29:18.266Z,1.80
2022-08-11T13:31:45.802Z,1.70
2022-08-11T13:34:12.332Z,1.80
2022-08-11T13:36:39.060Z,1.75
2022-08-11T13:39:05.632Z,1.90
2022-08-11T13:41:39.273Z,1.70
2022-08-11T13:44:07.199Z,1.92
2022-08-11T13:46:34.213Z,1.70
2022-08-11T13:49:02.274Z,1.67
2022-08-11T13:51:34.859Z,1.77
2022-08-11T13:54:10.313Z,1.80
2022-08-11T13:56:41.111Z,1.90
2022-08-11T13:59:08.726Z,2.03
2022-08-11T14:02:20.091Z,2.08
2022-08-11T14:04:39.662Z,1.92
2022-08-11T14:07:07.967Z,2.10
2022-08-11T14:09:40.925Z,1.98
2022-08-11T14:12:29.527Z,1.90
2022-08-11T14:15:07.593Z,1.90
2022-08-11T14:17:48.089Z,1.88
2022-08-11T14:20:38.712Z,1.50
2022-08-11T14:23:04.715Z,2.10
2022-08-11T14:25:59.721Z,2.25
2022-08-11T14:28:31.071Z,1.90
2022-08-11T14:31:02.111Z,1.75
2022-08-11T14:33:58.257Z,1.67
2022-08-11T14:36:17.295Z,1.98
2022-08-11T14:38:44.218Z,1.83
2022-08-11T14:41:29.788Z,1.77
2022-08-11T14:44:15.501Z,2.00
2022-08-11T14:47:01.644Z,2.00
2022-08-11T14:49:29.570Z,2.00
2022-08-11T14:51:57.690Z,2.28
2022-08-11T14:54:48.143Z,1.95
2022-08-11T14:57:16.116Z,1.90
2022-08-11T14:59:43.692Z,2.10
2022-08-11T15:02:29.758Z,1.95
2022-08-11T15:04:58.627Z,2.40
2022-08-11T15:07:30.131Z,1.98
2022-08-11T15:10:12.769Z,1.85
2022-08-11T15:12:42.041Z,2.17
2022-08-11T15:15:28.182Z,2.00
2022-08-11T15:17:56.890Z,1.77
2022-08-11T15:20:42.871Z,1.98
2022-08-11T15:23:28.454Z,1.80
2022-08-11T15:26:08.038Z,1.70
2022-08-11T15:29:01.226Z,2.00
2022-08-11T15:31:49.338Z,1.60
2022-08-11T15:34:36.899Z,1.90
2022-08-11T15:37:26.461Z,1.90
2022-08-11T15:40:41.114Z,2.10
2022-08-11T15:43:42.319Z,1.92
2022-08-11T15:46:26.128Z,1.77
2022-08-11T15:48:58.574Z,1.92
2022-08-11T15:52:00.406Z,2.25
2022-08-11T15:54:31.232Z,2.10
2022-08-11T15:56:58.774Z,2.03
2022-08-11T15:59:44.118Z,2.05
2022-08-11T16:02:34.407Z,1.88
2022-08-11T16:05:04.121Z,1.80
2022-08-11T16:07:38.477Z,1.88
2022-08-11T16:10:18.971Z,2.15
2022-08-11T16:13:06.000Z,2.05
2022-08-11T16:15:52.159Z,2.45
2022-08-11T16:18:26.247Z,2.10
2022-08-11T16:20:55.382Z,2.10
2022-08-11T16:23:22.685Z,2.00
2022-08-11T16:27:01.289Z,1.80
2022-08-11T16:28:38.997Z,2.30
2022-08-11T16:31:10.713Z,2.05
2022-08-11T16:33:51.143Z,2.15
2022-08-11T16:36:38.012Z,2.08
2022-08-11T16:39:05.720Z,2.03
2022-08-11T16:41:52.382Z,1.80
2022-08-11T16:44:38.566Z,2.15
2022-08-11T16:47:07.175Z,2.20
2022-08-11T16:49:36.663Z,2.10
2022-08-11T16:52:05.419Z,1.90
2022-08-11T16:54:35.448Z,2.10
2022-08-11T16:57:23.966Z,2.08
2022-08-11T16:59:56.073Z,2.45
2022-08-11T17:02:43.936Z,2.20
2022-08-11T17:05:35.106Z,2.05
2022-08-11T17:08:25.823Z,2.15
2022-08-11T17:11:20.987Z,2.38
2022-08-11T17:13:50.860Z,2.00
2022-08-11T17:16:22.809Z,2.10
2022-08-11T17:18:56.810Z,2.03
2022-08-11T17:21:33.806Z,2.28
2022-08-11T17:24:09.230Z,2.00
2022-08-11T17:26:58.688Z,2.20
2022-08-11T17:29:53.974Z,2.60
2022-08-11T17:33:00.753Z,2.08
2022-08-11T17:35:39.699Z,2.50
2022-08-11T17:38:12.619Z,2.95
2022-08-11T17:41:02.219Z,2.30
2022-08-11T17:43:47.797Z,2.25
2022-08-11T17:46:34.397Z,2.20
2022-08-11T17:49:02.035Z,2.50
2022-08-11T17:51:48.138Z,2.47
2022-08-11T17:54:33.731Z,2.42
2022-08-11T17:57:21.517Z,2.45
2022-08-11T17:59:57.905Z,2.00
2022-08-11T18:02:55.238Z,2.20
2022-08-11T18:05:24.887Z,2.38
2022-08-11T18:08:12.388Z,1.90
2022-08-11T18:10:57.899Z,2.17
2022-08-11T18:13:44.020Z,2.60
2022-08-11T18:16:29.510Z,2.53
2022-08-11T18:19:14.667Z,2.60
2022-08-11T18:22:15.103Z,2.40
2022-08-11T18:25:06.034Z,2.40
2022-08-11T18:27:52.712Z,2.38
2022-08-11T18:30:38.335Z,2.60
2022-08-11T18:33:50.360Z,2.70
2022-08-11T18:36:32.195Z,2.38
2022-08-11T18:39:18.592Z,2.67
2022-08-11T18:42:04.687Z,2.55
2022-08-11T18:44:51.152Z,2.38
2022-08-11T18:47:38.936Z,2.20
2022-08-11T18:50:38.594Z,2.20
2022-08-11T18:53:25.557Z,3.00
2022-08-11T18:56:10.689Z,2.72
2022-08-11T18:58:57.207Z,2.40
2022-08-11T19:01:46.009Z,2.35
2022-08-11T19:04:31.877Z,2.50
2022-08-11T19:07:23.461Z,2.40
2022-08-11T19:10:08.980Z,2.28
2022-08-11T19:12:57.890Z,2.67
2022-08-11T19:15:43.505Z,2.60
2022-08-11T19:18:35.534Z,2.50
2022-08-11T19:21:24.198Z,2.10
2022-08-11T19:24:11.308Z,2.17
2022-08-11T19:26:56.939Z,2.25
2022-08-11T19:30:08.040Z,2.72
2022-08-11T19:32:49.058Z,2.38
2022-08-11T19:35:34.705Z,2.63
2022-08-11T19:38:20.341Z,2.05
2022-08-11T19:41:06.824Z,2.20
2022-08-11T19:43:52.934Z,2.50
2022-08-11T19:46:40.065Z,2.47
2022-08-11T19:49:25.679Z,2.22
2022-08-11T19:52:10.822Z,2.17
2022-08-11T19:54:56.402Z,2.47
2022-08-11T19:57:43.413Z,2.42
2022-08-11T20:00:39.440Z,2.80
2022-08-11T20:03:27.803Z,3.08
2022-08-11T20:06:15.054Z,2.47
2022-08-11T20:09:01.799Z,2.40
2022-08-11T20:11:50.965Z,2.40
2022-08-11T20:14:39.215Z,2.33
2022-08-11T20:17:26.497Z,2.67
2022-08-11T20:20:11.690Z,2.77
2022-08-11T20:22:57.514Z,2.30
2022-08-11T20:25:43.183Z,2.80
2022-08-11T20:28:29.899Z,2.50
2022-08-11T20:31:15.073Z,2.50
2022-08-11T20:34:01.351Z,2.23
2022-08-11T20:36:53.916Z,2.60
2022-08-11T20:39:40.634Z,2.57
2022-08-11T20:42:30.304Z,2.03
2022-08-11T20:45:17.493Z,2.83
2022-08-11T20:48:08.325Z,2.20
2022-08-11T20:50:59.918Z,2.87
2022-08-11T20:53:45.052Z,2.60
2022-08-11T20:56:30.266Z,2.67
2022-08-11T20:59:17.874Z,2.47
2022-08-11T21:02:05.455Z,2.43
2022-08-11T21:04:55.373Z,2.80
2022-08-11T21:07:42.624Z,2.93
2022-08-11T21:10:29.543Z,2.47
2022-08-11T21:13:25.687Z,2.70
2022-08-11T21:16:23.360Z,2.63
2022-08-11T21:19:13.665Z,2.40
2022-08-11T21:22:00.018Z,2.87
2022-08-11T21:24:48.630Z,2.53
2022-08-11T21:27:35.241Z,2.57
2022-08-11T21:30:21.039Z,2.80
2022-08-11T21:33:06.076Z,2.20
2022-08-11T21:35:51.813Z,2.70
2022-08-11T21:38:36.860Z,2.27
2022-08-11T21:41:22.713Z,2.83
2022-08-11T21:44:08.742Z,2.30
2022-08-11T21:46:55.250Z,2.40
2022-08-11T21:49:42.103Z,2.63
2022-08-11T21:52:27.775Z,1.97
2022-08-11T21:55:13.441Z,2.23
2022-08-11T21:57:59.185Z,1.83
2022-08-11T22:00:44.864Z,2.47
2022-08-11T22:03:30.106Z,2.13
2022-08-11T22:06:21.527Z,2.33
2022-08-11T22:09:06.328Z,2.10
2022-08-11T22:11:51.423Z,1.83
2022-08-11T22:14:56.622Z,1.70
2022-08-11T22:17:41.738Z,2.03
2022-08-11T22:20:30.064Z,1.90
2022-08-11T22:23:16.734Z,1.80
2022-08-11T22:26:07.133Z,1.70
2022-08-11T22:28:56.666Z,2.30
2022-08-11T22:31:42.313Z,1.73
2022-08-11T22:34:28.012Z,1.83
2022-08-11T22:37:27.331Z,1.90
2022-08-11T22:40:12.890Z,1.70
2022-08-11T22:42:58.033Z,1.70
2022-08-11T22:45:42.913Z,1.87
2022-08-11T22:48:28.539Z,1.90
2022-08-11T22:51:14.116Z,2.60
2022-08-11T22:53:59.806Z,1.80
2022-08-11T22:56:46.314Z,2.33
2022-08-11T22:59:31.924Z,1.70
2022-08-11T23:02:17.288Z,1.90
2022-08-11T23:05:02.335Z,2.20
2022-08-11T23:07:51.365Z,1.87
2022-08-11T23:10:38.827Z,1.60
2022-08-11T23:13:24.916Z,2.10
2022-08-11T23:16:11.514Z,1.70
2022-08-11T23:18:56.788Z,1.83
2022-08-11T23:21:42.022Z,1.77
2022-08-11T23:24:27.870Z,2.60
2022-08-11T23:27:13.198Z,1.80
2022-08-11T23:29:59.433Z,2.07
2022-08-11T23:32:45.471Z,2.37
2022-08-11T23:35:40.229Z,1.90
2022-08-11T23:38:36.776Z,1.73
2022-08-11T23:41:22.540Z,1.90
2022-08-11T23:44:08.219Z,1.97
2022-08-11T23:46:53.831Z,1.63
2022-08-11T23:49:38.861Z,2.00
2022-08-11T23:52:23.889Z,2.10
2022-08-11T23:55:08.968Z,1.87
2022-08-11T23:57:54.559Z,2.07
